createdAt,value
2023-02-03T18:34:31.590Z,4.99
2023-02-03T18:36:58.141Z,5.01
2023-02-03T18:39:24.697Z,5.01
2023-02-03T18:41:51.279Z,5.03
2023-02-03T18:44:18.241Z,5.07
2023-02-03T18:46:44.825Z,5.00
2023-02-03T18:49:11.945Z,4.94
2023-02-03T18:51:39.790Z,4.91
2023-02-03T18:54:06.391Z,4.84
2023-02-03T18:56:32.920Z,4.81
2023-02-03T18:58:59.596Z,4.72
2023-02-03T19:01:28.576Z,4.63
2023-02-03T19:03:55.847Z,4.65
2023-02-03T19:06:23.089Z,4.66
2023-02-03T19:08:51.646Z,4.71
2023-02-03T19:11:19.113Z,4.68
2023-02-03T19:13:45.782Z,4.59
2023-02-03T19:16:14.402Z,4.54
2023-02-03T19:18:41.079Z,4.49
2023-02-03T19:21:07.686Z,4.50
2023-02-03T19:23:34.299Z,4.57
2023-02-03T19:26:02.190Z,4.67
2023-02-03T19:28:31.231Z,4.73
2023-02-03T19:31:07.440Z,4.71
2023-02-03T19:33:35.354Z,4.62
2023-02-03T19:36:02.143Z,4.69
2023-02-03T19:38:28.766Z,4.72
2023-02-03T19:40:55.362Z,4.70
2023-02-03T19:43:23.295Z,4.70
2023-02-03T19:45:50.003Z,4.71
2023-02-03T19:48:16.730Z,4.67
2023-02-03T19:50:43.322Z,4.73
2023-02-03T19:53:09.876Z,4.72
2023-02-03T19:55:36.498Z,4.78
2023-02-03T19:58:03.097Z,4.82
2023-02-03T20:00:31.143Z,4.78
2023-02-03T20:02:57.688Z,4.71
2023-02-03T20:05:24.377Z,4.72
2023-02-03T20:07:50.946Z,4.80
2023-02-03T20:10:17.786Z,4.75
2023-02-03T20:12:44.331Z,4.71
2023-02-03T20:15:10.893Z,4.74
2023-02-03T20:17:38.838Z,4.72
2023-02-03T20:20:05.941Z,4.73
2023-02-03T20:22:32.556Z,4.71
2023-02-03T20:24:59.373Z,4.70
2023-02-03T20:27:26.149Z,4.67
2023-02-03T20:29:52.971Z,4.59
2023-02-03T20:32:19.782Z,4.61
2023-02-03T20:34:47.741Z,4.53
2023-02-03T20:37:14.437Z,4.57
2023-02-03T20:39:41.124Z,4.50
2023-02-03T20:42:14.218Z,4.53
2023-02-03T20:44:42.342Z,4.56
2023-02-03T20:47:10.649Z,4.51
2023-02-03T20:49:37.281Z,4.46
2023-02-03T20:52:11.023Z,4.38
2023-02-03T20:54:37.808Z,4.35
2023-02-03T20:57:09.971Z,4.35
2023-02-03T20:59:36.598Z,4.33
2023-02-03T21:02:03.346Z,4.28
2023-02-03T21:04:29.986Z,4.24
2023-02-03T21:06:56.777Z,4.18
2023-02-03T21:09:25.609Z,4.14
2023-02-03T21:11:52.565Z,4.13
2023-02-03T21:14:21.265Z,4.28
2023-02-03T21:16:48.010Z,4.24
2023-02-03T21:19:25.172Z,4.20
2023-02-03T21:21:51.775Z,4.38
2023-02-03T21:24:27.952Z,4.38
2023-02-03T21:26:55.251Z,4.30
2023-02-03T21:29:24.618Z,4.27
2023-02-03T21:31:53.154Z,4.35
2023-02-03T21:34:26.835Z,4.38
2023-02-03T21:36:53.891Z,4.32
2023-02-03T21:39:33.390Z,4.34
2023-02-03T21:42:21.961Z,4.27
2023-02-03T21:44:48.603Z,4.27
2023-02-03T21:47:18.061Z,4.23
2023-02-03T21:49:44.838Z,4.20
2023-02-03T21:52:12.963Z,4.18
2023-02-03T21:54:42.054Z,4.09
2023-02-03T21:57:13.416Z,4.11
2023-02-03T21:59:40.690Z,4.11
2023-02-03T22:02:38.367Z,4.11
2023-02-03T22:05:05.276Z,4.05
2023-02-03T22:07:31.868Z,4.13
2023-02-03T22:09:59.757Z,4.06
2023-02-03T22:12:26.279Z,4.15
2023-02-03T22:14:52.859Z,4.18
2023-02-03T22:17:19.395Z,4.09
2023-02-03T22:19:45.985Z,4.13
2023-02-03T22:22:12.604Z,4.09
2023-02-03T22:24:39.278Z,4.03
2023-02-03T22:27:07.137Z,4.07
2023-02-03T22:29:33.703Z,4.00
2023-02-03T22:32:00.655Z,4.00
2023-02-03T22:34:27.273Z,4.10
2023-02-03T22:36:53.933Z,4.12
2023-02-03T22:39:20.488Z,4.02
2023-02-03T22:41:47.224Z,3.93
2023-02-03T22:44:15.118Z,3.88
2023-02-03T22:46:41.808Z,3.85
2023-02-03T22:49:08.328Z,3.91
2023-02-03T22:51:34.900Z,4.02
2023-02-03T22:54:01.440Z,3.96
2023-02-03T22:56:28.005Z,3.89
2023-02-03T22:58:54.709Z,3.86
2023-02-03T23:01:22.649Z,3.87
2023-02-03T23:03:49.174Z,3.80
2023-02-03T23:06:15.732Z,3.73
2023-02-03T23:08:42.290Z,3.66
2023-02-03T23:11:08.828Z,3.63
2023-02-03T23:13:35.368Z,3.64
2023-02-03T23:16:02.174Z,3.69
2023-02-03T23:18:30.047Z,3.54
2023-02-03T23:20:56.701Z,3.47
2023-02-03T23:23:23.427Z,3.40
2023-02-03T23:25:50.023Z,3.39
2023-02-03T23:28:16.684Z,3.40
2023-02-03T23:30:43.328Z,3.36
2023-02-03T23:33:09.973Z,3.42
2023-02-03T23:35:37.872Z,3.42
2023-02-03T23:38:04.453Z,3.42
2023-02-03T23:40:31.271Z,3.38
2023-02-03T23:42:58.156Z,3.43
2023-02-03T23:45:24.842Z,3.47
2023-02-03T23:47:51.348Z,3.44
2023-02-03T23:50:18.400Z,3.53
2023-02-03T23:52:46.629Z,3.53
2023-02-03T23:55:15.871Z,3.55
2023-02-03T23:57:43.066Z,3.50
